createdAt,value
2019-05-30T04:23:46.440Z,99.99
2019-05-30T04:24:46.402Z,99.99
2019-05-30T04:25:46.356Z,99.99
2019-05-30T04:26:46.346Z,99.99
2019-05-30T04:27:46.370Z,99.99
2019-05-30T04:28:46.403Z,99.99
2019-05-30T04:29:46.335Z,99.99
2019-05-30T04:30:46.348Z,99.99
2019-05-30T04:31:46.358Z,99.99
2019-05-30T04:32:46.287Z,99.99
2019-05-30T04:33:46.306Z,99.99
2019-05-30T04:34:46.308Z,99.99
2019-05-30T04:35:46.319Z,99.99
2019-05-30T04:36:46.292Z,99.99
2019-05-30T04:37:46.300Z,99.99
2019-05-30T04:38:46.253Z,99.99
2019-05-30T04:39:46.306Z,99.99
2019-05-30T04:40:46.271Z,99.90
2019-05-30T04:41:46.290Z,97.56
2019-05-30T04:42:46.249Z,95.51
2019-05-30T04:43:46.299Z,93.88
2019-05-30T04:44:46.306Z,94.70
2019-05-30T04:45:46.270Z,96.75
2019-05-30T04:46:46.279Z,96.94
2019-05-30T04:47:46.271Z,97.13
2019-05-30T04:48:46.244Z,96.61
2019-05-30T04:49:46.275Z,96.13
2019-05-30T04:50:46.253Z,95.65
2019-05-30T04:51:46.271Z,94.70
2019-05-30T04:52:46.277Z,94.26
2019-05-30T04:53:46.277Z,94.07
2019-05-30T04:54:46.268Z,92.69
2019-05-30T04:55:46.272Z,91.44
2019-05-30T04:56:46.265Z,89.91
2019-05-30T04:57:46.298Z,87.61
2019-05-30T04:58:46.276Z,85.45
2019-05-30T04:59:46.292Z,83.29
2019-05-30T05:00:46.279Z,80.58
2019-05-30T05:01:46.316Z,78.28
2019-05-30T05:02:46.316Z,77.56
2019-05-30T05:03:47.033Z,75.87
2019-05-30T05:04:46.297Z,75.00
2019-05-30T05:05:46.325Z,73.98
2019-05-30T05:06:46.336Z,72.83
2019-05-30T05:07:46.358Z,71.87
2019-05-30T05:08:46.377Z,71.29
2019-05-30T05:09:46.388Z,71.19
2019-05-30T05:10:46.395Z,70.17
2019-05-30T05:11:46.367Z,70.27
2019-05-30T05:12:46.387Z,69.34
2019-05-30T05:13:46.371Z,69.24
2019-05-30T05:14:46.390Z,68.90
2019-05-30T05:15:46.407Z,69.09
2019-05-30T05:16:46.415Z,68.51
2019-05-30T05:17:46.450Z,67.10
2019-05-30T05:18:46.423Z,65.50
2019-05-30T05:19:46.493Z,64.18
2019-05-30T05:20:46.448Z,63.15
2019-05-30T05:21:46.446Z,62.22
2019-05-30T05:22:46.537Z,61.74
2019-05-30T05:23:46.486Z,59.93
2019-05-30T05:24:46.527Z,58.80
2019-05-30T05:25:59.857Z,56.41
2019-05-30T05:26:46.508Z,56.63
2019-05-30T05:27:46.521Z,55.79
2019-05-30T05:28:46.576Z,55.31
2019-05-30T05:29:46.536Z,55.02
2019-05-30T05:30:55.318Z,54.47
2019-05-30T05:32:40.255Z,52.87
2019-05-30T05:33:53.711Z,52.39
2019-05-30T05:34:40.279Z,52.78
2019-05-30T05:35:40.334Z,51.74
2019-05-30T05:36:40.296Z,51.81
2019-05-30T05:37:40.312Z,51.16
2019-05-30T05:38:40.312Z,50.89
2019-05-30T05:39:49.073Z,49.66
2019-05-30T05:41:44.894Z,48.97
2019-05-30T05:42:44.896Z,48.32
2019-05-30T05:43:44.884Z,47.76
2019-05-30T05:44:44.932Z,47.55
2019-05-30T05:45:44.938Z,47.91
2019-05-30T05:46:44.968Z,48.39
2019-05-30T05:47:45.024Z,49.95
2019-05-30T05:48:45.002Z,47.69
2019-05-30T05:49:45.083Z,46.14
2019-05-30T05:50:45.039Z,45.38
2019-05-30T05:51:45.029Z,45.38
2019-05-30T05:52:45.035Z,44.53
2019-05-30T05:53:45.103Z,43.79
2019-05-30T05:54:45.143Z,44.53
2019-05-30T05:55:45.121Z,45.77
2019-05-30T05:56:53.809Z,44.55
2019-05-30T05:58:50.654Z,43.67
2019-05-30T06:00:00.164Z,42.53
2019-05-30T06:01:55.785Z,43.09
2019-05-30T06:02:55.586Z,42.53
2019-05-30T06:04:13.167Z,41.67
2019-05-30T06:06:00.117Z,41.48
2019-05-30T06:07:00.075Z,40.81
2019-05-30T06:08:00.087Z,40.58
2019-05-30T06:09:00.296Z,42.60
2019-05-30T06:10:00.153Z,43.16
2019-05-30T06:11:00.211Z,42.85
2019-05-30T06:12:00.209Z,42.87
2019-05-30T06:13:00.183Z,42.49
2019-05-30T06:14:00.198Z,42.80
2019-05-30T06:15:00.265Z,40.99
2019-05-30T06:16:00.237Z,40.03
2019-05-30T06:17:00.268Z,40.03
2019-05-30T06:18:00.278Z,39.65
2019-05-30T06:19:00.288Z,43.01
2019-05-30T06:20:00.312Z,49.90
2019-05-30T06:21:00.280Z,55.01
2019-05-30T06:22:00.352Z,58.91
2019-05-30T06:23:00.316Z,60.71
2019-05-30T06:24:00.337Z,61.35
2019-05-30T06:25:00.352Z,61.71
2019-05-30T06:26:00.384Z,62.87
2019-05-30T06:27:09.567Z,64.02
2019-05-30T06:29:06.883Z,64.08
2019-05-30T06:31:46.893Z,65.43
2019-05-30T06:32:46.928Z,66.07
2019-05-30T06:33:46.912Z,66.27
2019-05-30T06:34:46.882Z,66.36
2019-05-30T06:35:46.861Z,67.48
2019-05-30T06:36:46.873Z,67.96
2019-05-30T06:37:46.880Z,67.86
2019-05-30T06:38:46.858Z,67.61
2019-05-30T06:39:46.873Z,67.19
2019-05-30T06:40:46.875Z,67.86
2019-05-30T06:41:46.893Z,67.86
2019-05-30T06:42:46.894Z,68.92
2019-05-30T06:43:46.898Z,69.95
2019-05-30T06:44:46.891Z,70.58
2019-05-30T06:45:46.903Z,70.81
2019-05-30T06:46:46.957Z,71.64
2019-05-30T06:47:46.966Z,71.25
2019-05-30T06:48:46.923Z,71.55
2019-05-30T06:49:46.936Z,71.35
2019-05-30T06:50:46.929Z,71.16
2019-05-30T06:51:47.074Z,71.73
2019-05-30T06:52:46.950Z,72.99
2019-05-30T06:53:46.938Z,73.66
2019-05-30T06:54:46.947Z,74.19
2019-05-30T06:55:46.965Z,74.04
2019-05-30T06:56:46.984Z,73.66
2019-05-30T06:57:46.960Z,73.27
2019-05-30T06:58:49.003Z,73.43
2019-05-30T06:59:46.961Z,73.24
2019-05-30T07:00:46.980Z,73.56
2019-05-30T07:01:46.973Z,73.27
2019-05-30T07:02:46.996Z,73.27
2019-05-30T07:03:47.125Z,72.31
2019-05-30T07:04:52.063Z,72.41
2019-05-30T07:05:47.489Z,72.47
2019-05-30T07:06:47.411Z,72.75
2019-05-30T07:07:47.208Z,72.85
2019-05-30T07:08:46.991Z,73.43
2019-05-30T07:09:47.038Z,73.04
2019-05-30T07:10:47.063Z,73.72
2019-05-30T07:11:47.060Z,74.10
2019-05-30T07:12:47.109Z,73.81
2019-05-30T07:13:47.088Z,73.81
2019-05-30T07:14:47.043Z,74.01
2019-05-30T07:15:47.033Z,73.33
2019-05-30T07:16:47.113Z,73.52
2019-05-30T07:17:47.099Z,73.91
2019-05-30T07:18:47.144Z,74.39
2019-05-30T07:19:47.021Z,74.54
2019-05-30T07:20:47.055Z,75.50
2019-05-30T07:21:47.027Z,74.83
2019-05-30T07:22:47.028Z,75.12
2019-05-30T07:23:47.787Z,75.50
2019-05-30T07:24:47.097Z,75.02
2019-05-30T07:25:47.121Z,74.39
2019-05-30T07:26:47.077Z,74.10
2019-05-30T07:27:47.158Z,74.29
2019-05-30T07:28:47.035Z,74.01
2019-05-30T07:29:47.866Z,74.10
2019-05-30T07:30:47.064Z,74.10
2019-05-30T07:31:47.074Z,73.81
2019-05-30T07:32:47.398Z,74.29
2019-05-30T07:33:47.105Z,74.77
2019-05-30T07:34:47.074Z,75.31
2019-05-30T07:35:47.134Z,74.77
2019-05-30T07:36:47.079Z,74.39
2019-05-30T07:37:47.136Z,74.83
2019-05-30T07:38:47.091Z,75.40
2019-05-30T07:39:47.590Z,76.37
2019-05-30T07:40:47.159Z,76.27
2019-05-30T07:42:04.917Z,75.82
2019-05-30T07:42:47.072Z,75.35
2019-05-30T07:43:47.147Z,75.21
2019-05-30T07:44:47.101Z,74.73
2019-05-30T07:45:57.634Z,75.89
2019-05-30T07:46:47.271Z,75.82
2019-05-30T07:47:47.069Z,76.27
2019-05-30T07:48:47.129Z,76.50
2019-05-30T07:49:47.429Z,75.73
2019-05-30T07:50:47.077Z,76.21
2019-05-30T07:51:47.085Z,75.82
2019-05-30T07:52:47.098Z,76.02
2019-05-30T07:53:47.119Z,76.02
2019-05-30T07:54:47.080Z,76.12
2019-05-30T07:55:47.158Z,76.40
2019-05-30T07:56:47.125Z,76.40
2019-05-30T07:57:47.499Z,76.59
2019-05-30T07:58:47.129Z,75.92
2019-05-30T07:59:47.142Z,76.98
2019-05-30T08:00:47.115Z,76.88
2019-05-30T08:01:47.101Z,76.40
2019-05-30T08:02:47.108Z,75.63
2019-05-30T08:03:47.103Z,75.92
2019-05-30T08:04:47.193Z,75.63
2019-05-30T08:05:47.133Z,75.92
2019-05-30T08:06:47.152Z,75.45
2019-05-30T08:07:47.885Z,75.06
2019-05-30T08:08:56.000Z,75.73
2019-05-30T08:11:08.065Z,74.87
2019-05-30T08:11:52.654Z,75.45
2019-05-30T08:12:52.644Z,75.25
2019-05-30T08:13:52.660Z,74.58
2019-05-30T08:14:52.646Z,74.29
2019-05-30T08:15:52.679Z,74.48
2019-05-30T08:16:52.639Z,74.87
2019-05-30T08:17:53.070Z,74.68
2019-05-30T08:18:52.621Z,75.21
2019-05-30T08:19:52.658Z,76.37
2019-05-30T08:20:52.704Z,76.37
2019-05-30T08:21:52.632Z,75.82
2019-05-30T08:22:52.638Z,76.37
2019-05-30T08:23:52.803Z,76.56
2019-05-30T08:24:52.629Z,76.37
2019-05-30T08:25:52.645Z,76.12
2019-05-30T08:28:42.686Z,74.96
2019-05-30T08:29:40.798Z,75.45
2019-05-30T08:31:36.871Z,74.87
2019-05-30T08:32:36.931Z,75.10
2019-05-30T08:33:37.567Z,74.48
2019-05-30T08:34:36.695Z,74.04
2019-05-30T08:35:46.703Z,74.81
2019-05-30T08:36:37.112Z,75.25
2019-05-30T08:37:37.320Z,74.48
2019-05-30T08:38:37.414Z,75.35
2019-05-30T08:39:37.390Z,75.25
2019-05-30T08:40:37.700Z,75.25
2019-05-30T08:41:37.381Z,75.35
2019-05-30T08:42:38.200Z,75.15
2019-05-30T08:43:37.505Z,75.25
2019-05-30T08:44:36.388Z,76.06
2019-05-30T08:45:36.398Z,75.10
2019-05-30T08:46:36.382Z,74.13
2019-05-30T08:47:36.404Z,74.04
2019-05-30T08:48:36.407Z,74.13
2019-05-30T08:49:36.425Z,74.33
2019-05-30T08:50:38.652Z,74.23
2019-05-30T08:51:36.414Z,73.85
2019-05-30T08:52:36.571Z,74.43
2019-05-30T08:53:36.534Z,73.66
2019-05-30T08:54:36.503Z,73.85
2019-05-30T08:55:36.519Z,73.08
2019-05-30T08:56:36.572Z,73.27
2019-05-30T08:57:36.696Z,72.99
2019-05-30T08:58:36.806Z,72.60
2019-05-30T08:59:36.724Z,71.93
2019-05-30T09:00:36.977Z,72.69
2019-05-30T09:01:37.446Z,72.83
2019-05-30T09:02:36.669Z,72.44
2019-05-30T09:03:36.411Z,72.34
2019-05-30T09:04:37.809Z,72.16
2019-05-30T09:05:36.707Z,72.16
2019-05-30T09:06:36.420Z,71.19
2019-05-30T09:07:36.574Z,70.14
2019-05-30T09:08:36.423Z,70.52
2019-05-30T09:09:36.431Z,70.90
2019-05-30T09:10:37.787Z,71.55
2019-05-30T09:11:37.699Z,71.64
2019-05-30T09:12:37.897Z,71.29
2019-05-30T09:13:37.716Z,70.04
2019-05-30T09:14:37.877Z,69.18
2019-05-30T09:15:37.451Z,69.75
2019-05-30T09:16:36.428Z,70.90
2019-05-30T09:17:38.711Z,71.39
2019-05-30T09:18:37.985Z,70.43
2019-05-30T09:19:37.953Z,69.95
2019-05-30T09:20:37.883Z,69.66
2019-05-30T09:21:36.816Z,69.18
2019-05-30T09:22:37.922Z,69.85
2019-05-30T09:23:38.282Z,70.14
2019-05-30T09:24:38.461Z,70.14
2019-05-30T09:25:37.203Z,67.54
2019-05-30T09:26:38.515Z,67.83
2019-05-30T09:27:38.890Z,67.25
2019-05-30T09:28:36.446Z,67.16
2019-05-30T09:29:36.484Z,67.54
2019-05-30T09:30:36.518Z,67.54
2019-05-30T09:31:36.479Z,67.07
2019-05-30T09:32:36.462Z,64.85
2019-05-30T09:33:36.496Z,63.99
2019-05-30T09:34:36.483Z,64.18
2019-05-30T09:35:36.482Z,64.95
2019-05-30T09:36:36.516Z,66.49
2019-05-30T09:37:36.498Z,65.81
2019-05-30T09:38:36.462Z,66.39
2019-05-30T09:39:36.491Z,63.70
2019-05-30T09:40:36.473Z,61.04
2019-05-30T09:41:36.495Z,59.19
2019-05-30T09:42:36.517Z,59.28
2019-05-30T09:43:36.498Z,60.05
2019-05-30T09:44:36.493Z,60.08
2019-05-30T09:45:36.495Z,60.85
2019-05-30T09:46:36.528Z,61.11
2019-05-30T09:47:36.511Z,62.64
2019-05-30T09:48:36.494Z,61.52
2019-05-30T09:49:36.500Z,63.15
2019-05-30T09:50:36.485Z,63.83
2019-05-30T09:51:36.486Z,62.10
2019-05-30T09:52:36.507Z,60.85
2019-05-30T09:53:36.487Z,59.99
2019-05-30T09:54:37.048Z,60.37
2019-05-30T09:55:36.562Z,60.08
2019-05-30T09:56:36.600Z,60.46
2019-05-30T09:57:36.490Z,62.10
2019-05-30T09:58:36.591Z,62.58
2019-05-30T09:59:36.520Z,62.58
2019-05-30T10:00:36.894Z,59.69
2019-05-30T10:01:36.529Z,58.15
2019-05-30T10:02:36.528Z,57.51
2019-05-30T10:03:36.533Z,58.15
2019-05-30T10:04:36.532Z,58.73
2019-05-30T10:05:36.515Z,59.31
2019-05-30T10:06:36.520Z,60.27
2019-05-30T10:07:36.548Z,59.89
2019-05-30T10:08:36.546Z,60.17
2019-05-30T10:09:36.521Z,60.75
2019-05-30T10:10:36.533Z,60.46
2019-05-30T10:11:36.528Z,59.50
2019-05-30T10:12:36.562Z,58.73
2019-05-30T10:13:36.525Z,59.41
2019-05-30T10:14:36.560Z,59.12
2019-05-30T10:15:36.622Z,59.50
2019-05-30T10:16:36.534Z,60.27
2019-05-30T10:17:36.544Z,60.37
2019-05-30T10:18:36.608Z,61.43
2019-05-30T10:19:36.572Z,60.46
2019-05-30T10:20:36.643Z,60.27
2019-05-30T10:21:36.563Z,60.39
2019-05-30T10:22:36.564Z,59.92
2019-05-30T10:23:36.575Z,60.39
2019-05-30T10:24:36.596Z,61.16
2019-05-30T10:25:36.587Z,60.21
2019-05-30T10:26:36.606Z,57.80
2019-05-30T10:27:36.597Z,58.09
2019-05-30T10:28:36.613Z,57.99
2019-05-30T10:29:36.608Z,56.65
2019-05-30T10:30:36.624Z,57.22
2019-05-30T10:31:36.587Z,57.13
2019-05-30T10:32:36.695Z,57.42
2019-05-30T10:33:36.602Z,56.55
2019-05-30T10:34:36.605Z,57.42
2019-05-30T10:35:36.725Z,57.77
2019-05-30T10:36:44.238Z,58.76
2019-05-30T10:37:36.560Z,58.86
2019-05-30T10:38:36.588Z,58.47
2019-05-30T10:39:47.314Z,58.09
2019-05-30T10:41:41.270Z,57.03
2019-05-30T10:42:41.100Z,58.18
2019-05-30T10:43:41.121Z,57.90
2019-05-30T10:44:41.166Z,57.60
2019-05-30T10:45:41.157Z,57.80
2019-05-30T10:46:41.155Z,56.74
2019-05-30T10:47:41.188Z,56.07
2019-05-30T10:48:41.253Z,56.07
2019-05-30T10:49:41.183Z,57.32
2019-05-30T10:50:41.156Z,57.99
2019-05-30T10:51:41.119Z,56.26
2019-05-30T10:52:41.171Z,56.74
2019-05-30T10:53:41.291Z,57.32
2019-05-30T10:54:41.195Z,57.99
2019-05-30T10:55:41.189Z,58.67
2019-05-30T10:56:41.193Z,58.57
2019-05-30T10:57:41.150Z,57.70
2019-05-30T10:58:41.146Z,58.60
2019-05-30T10:59:41.214Z,58.79
2019-05-30T11:00:41.150Z,58.57
2019-05-30T11:01:41.179Z,57.60
2019-05-30T11:02:41.152Z,58.18
2019-05-30T11:03:41.135Z,58.37
2019-05-30T11:04:41.193Z,58.95
2019-05-30T11:05:41.229Z,58.50
2019-05-30T11:06:41.176Z,57.15
2019-05-30T11:07:53.165Z,56.87
2019-05-30T11:08:41.194Z,55.43
2019-05-30T11:09:41.227Z,54.75
2019-05-30T11:10:41.185Z,54.46
2019-05-30T11:11:41.154Z,53.31
2019-05-30T11:12:41.192Z,52.54
2019-05-30T11:13:41.172Z,53.59
2019-05-30T11:14:41.314Z,53.02
2019-05-30T11:15:41.216Z,52.44
2019-05-30T11:16:41.241Z,50.51
2019-05-30T11:17:41.213Z,50.23
2019-05-30T11:18:41.219Z,51.29
2019-05-30T11:19:41.203Z,51.57
2019-05-30T11:20:41.231Z,52.44
2019-05-30T11:21:41.257Z,53.11
2019-05-30T11:22:41.216Z,53.02
2019-05-30T11:23:41.185Z,53.11
2019-05-30T11:24:41.190Z,54.08
2019-05-30T11:25:41.207Z,54.85
2019-05-30T11:26:41.228Z,54.75
2019-05-30T11:27:41.228Z,53.98
2019-05-30T11:28:41.269Z,54.46
2019-05-30T11:29:41.289Z,54.94
2019-05-30T11:30:41.318Z,54.75
2019-05-30T11:31:41.255Z,54.75
2019-05-30T11:32:41.264Z,54.94
2019-05-30T11:33:41.269Z,53.98
2019-05-30T11:34:41.265Z,54.56
2019-05-30T11:35:41.212Z,54.27
2019-05-30T11:36:41.253Z,53.53
2019-05-30T11:37:41.287Z,53.62
2019-05-30T11:38:41.285Z,53.62
2019-05-30T11:39:41.236Z,53.62
2019-05-30T11:40:41.220Z,54.00
2019-05-30T11:41:41.288Z,53.59
2019-05-30T11:42:41.279Z,53.40
2019-05-30T11:43:41.221Z,54.08
2019-05-30T11:44:41.249Z,54.00
2019-05-30T11:45:41.244Z,53.21
2019-05-30T11:46:41.252Z,53.43
2019-05-30T11:47:41.268Z,53.23
2019-05-30T11:48:41.293Z,54.00
2019-05-30T11:49:41.300Z,54.97
2019-05-30T11:50:41.274Z,54.97
2019-05-30T11:51:41.272Z,55.26
2019-05-30T11:52:41.329Z,55.55
2019-05-30T11:53:41.245Z,55.83
2019-05-30T11:54:41.276Z,53.43
2019-05-30T11:55:41.253Z,52.95
2019-05-30T11:56:41.307Z,53.05
2019-05-30T11:57:41.263Z,53.33
2019-05-30T11:58:41.290Z,53.23
2019-05-30T11:59:41.284Z,53.81
2019-05-30T12:00:41.260Z,53.91
2019-05-30T12:01:41.289Z,52.27
2019-05-30T12:02:41.300Z,52.56
2019-05-30T12:03:41.282Z,51.41
2019-05-30T12:04:41.270Z,51.41
2019-05-30T12:05:41.279Z,51.34
2019-05-30T12:06:41.279Z,51.02
2019-05-30T12:07:41.345Z,49.68
2019-05-30T12:08:41.301Z,49.77
2019-05-30T12:09:41.282Z,49.58
2019-05-30T12:10:41.314Z,49.77
2019-05-30T12:11:41.291Z,49.38
2019-05-30T12:12:41.335Z,49.58
2019-05-30T12:13:41.297Z,49.41
2019-05-30T12:14:41.288Z,48.74
2019-05-30T12:15:41.301Z,48.93
2019-05-30T12:16:41.340Z,49.60
2019-05-30T12:17:41.302Z,50.57
2019-05-30T12:18:41.342Z,51.53
2019-05-30T12:19:41.357Z,52.11
2019-05-30T12:20:41.333Z,53.07
2019-05-30T12:21:41.330Z,53.07
2019-05-30T12:22:41.346Z,53.27
2019-05-30T12:23:41.384Z,52.49
2019-05-30T12:24:41.364Z,52.69
2019-05-30T12:25:41.350Z,53.07
2019-05-30T12:26:41.513Z,53.17
2019-05-30T12:27:41.378Z,53.55
2019-05-30T12:28:41.401Z,54.42
2019-05-30T12:29:41.424Z,56.05
2019-05-30T12:30:55.237Z,57.31
2019-05-30T12:31:41.436Z,57.60
2019-05-30T12:32:41.421Z,57.69
2019-05-30T12:33:41.419Z,57.98
2019-05-30T12:34:41.429Z,58.08
2019-05-30T12:35:41.367Z,57.98
2019-05-30T12:36:41.389Z,57.69
2019-05-30T12:37:54.024Z,58.27
2019-05-30T12:38:41.403Z,57.21
2019-05-30T12:39:41.387Z,56.82
2019-05-30T12:40:41.448Z,56.90
2019-05-30T12:41:41.410Z,57.89
2019-05-30T12:42:41.407Z,57.72
2019-05-30T12:43:41.431Z,56.47
2019-05-30T12:44:41.397Z,57.24
2019-05-30T12:45:41.449Z,57.05
2019-05-30T12:46:41.429Z,56.95
2019-05-30T12:47:41.428Z,56.57
2019-05-30T12:48:41.474Z,56.18
2019-05-30T12:49:41.396Z,56.05
2019-05-30T12:50:41.391Z,57.98
2019-05-30T12:51:41.438Z,57.31
2019-05-30T12:52:41.394Z,56.66
2019-05-30T12:53:41.395Z,56.15
2019-05-30T12:54:41.405Z,55.67
2019-05-30T12:55:41.443Z,54.90
2019-05-30T12:56:49.192Z,56.37
2019-05-30T12:58:46.171Z,54.54
2019-05-30T12:59:45.995Z,53.77
2019-05-30T13:00:46.058Z,52.52
2019-05-30T13:01:46.153Z,52.91
2019-05-30T13:02:45.966Z,53.65
2019-05-30T13:03:45.965Z,54.74
2019-05-30T13:04:45.980Z,56.25
2019-05-30T13:05:45.993Z,56.57
2019-05-30T13:06:55.978Z,54.25
2019-05-30T13:08:39.563Z,55.22
2019-05-30T13:09:39.451Z,54.83
2019-05-30T13:10:48.300Z,55.31
2019-05-30T13:12:44.936Z,53.87
2019-05-30T13:13:44.925Z,51.68
2019-05-30T13:14:44.918Z,50.90
2019-05-30T13:15:45.024Z,51.56
2019-05-30T13:16:44.925Z,53.87
2019-05-30T13:17:44.978Z,54.93
2019-05-30T13:18:44.923Z,55.60
2019-05-30T13:19:44.923Z,57.72
2019-05-30T13:20:53.758Z,56.09
2019-05-30T13:22:49.529Z,56.85
2019-05-30T13:23:49.453Z,56.18
2019-05-30T13:24:59.628Z,55.02
2019-05-30T13:27:14.050Z,54.35
2019-05-30T13:28:13.973Z,54.06
2019-05-30T13:30:10.712Z,53.99
2019-05-30T13:31:10.719Z,54.38
2019-05-30T13:32:10.699Z,53.41
2019-05-30T13:33:10.727Z,54.09
2019-05-30T13:34:10.707Z,54.76
2019-05-30T13:35:19.543Z,54.76
2019-05-30T13:38:54.635Z,51.77
2019-05-30T13:39:54.634Z,51.56
2019-05-30T13:41:03.606Z,50.98
2019-05-30T13:42:59.742Z,53.03
2019-05-30T13:44:03.288Z,52.55
2019-05-30T13:44:59.908Z,52.25
2019-05-30T13:46:00.191Z,52.73
2019-05-30T13:47:00.717Z,52.25
2019-05-30T13:48:00.270Z,51.58
2019-05-30T13:49:00.665Z,51.29
2019-05-30T13:49:59.168Z,51.10
2019-05-30T13:50:59.191Z,51.48
2019-05-30T13:51:59.162Z,51.39
2019-05-30T13:52:59.213Z,51.58
2019-05-30T13:53:59.168Z,52.25
2019-05-30T13:54:59.173Z,51.97
2019-05-30T13:55:59.327Z,51.68
2019-05-30T13:56:59.473Z,52.83
2019-05-30T13:57:59.495Z,53.22
2019-05-30T13:58:59.703Z,53.13
2019-05-30T13:59:59.627Z,53.80
2019-05-30T14:00:59.850Z,54.28
2019-05-30T14:01:59.834Z,54.18
2019-05-30T14:02:59.921Z,54.18
2019-05-30T14:04:00.014Z,54.18
2019-05-30T14:04:59.984Z,54.86
2019-05-30T14:05:59.929Z,54.76
2019-05-30T14:07:00.054Z,54.28
2019-05-30T14:07:59.948Z,54.38
2019-05-30T14:09:00.179Z,54.66
2019-05-30T14:10:00.264Z,55.05
2019-05-30T14:11:00.439Z,54.09
2019-05-30T14:12:00.368Z,54.38
2019-05-30T14:13:00.653Z,54.86
2019-05-30T14:14:00.472Z,55.05
2019-05-30T14:15:00.627Z,55.34
2019-05-30T14:15:59.270Z,55.92
2019-05-30T14:16:59.287Z,55.63
2019-05-30T14:17:59.294Z,56.49
2019-05-30T14:18:59.303Z,56.30
2019-05-30T14:19:59.366Z,56.21
2019-05-30T14:20:59.368Z,56.11
2019-05-30T14:21:59.309Z,55.44
2019-05-30T14:22:59.318Z,54.96
2019-05-30T14:23:59.295Z,55.63
2019-05-30T14:24:59.328Z,55.73
2019-05-30T14:25:59.333Z,55.73
2019-05-30T14:26:59.354Z,54.86
2019-05-30T14:27:59.316Z,54.76
2019-05-30T14:28:59.357Z,54.98
2019-05-30T14:29:59.324Z,55.18
2019-05-30T14:30:59.360Z,54.88
2019-05-30T14:31:59.551Z,55.08
2019-05-30T14:32:59.361Z,55.27
2019-05-30T14:33:59.364Z,55.76
2019-05-30T14:34:59.375Z,55.94
2019-05-30T14:35:59.379Z,55.76
2019-05-30T14:36:59.452Z,55.46
2019-05-30T14:37:59.391Z,55.27
2019-05-30T14:38:59.380Z,56.46
2019-05-30T14:39:59.372Z,57.52
2019-05-30T14:40:59.429Z,56.36
2019-05-30T14:41:59.418Z,54.72
2019-05-30T14:42:59.468Z,55.30
2019-05-30T14:43:59.398Z,55.18
2019-05-30T14:44:59.408Z,55.10
2019-05-30T14:45:59.441Z,54.33
2019-05-30T14:46:59.439Z,54.33
2019-05-30T14:47:59.414Z,54.11
2019-05-30T14:48:59.465Z,54.50
2019-05-30T14:49:59.431Z,55.08
2019-05-30T14:50:59.444Z,53.92
2019-05-30T14:51:59.457Z,52.50
2019-05-30T14:52:59.441Z,52.40
2019-05-30T14:53:59.446Z,52.59
2019-05-30T14:54:59.459Z,52.69
2019-05-30T14:55:59.515Z,52.40
2019-05-30T14:56:59.461Z,52.79
2019-05-30T14:57:59.532Z,51.53
2019-05-30T14:58:59.474Z,52.50
2019-05-30T14:59:59.514Z,51.92
2019-05-30T15:00:59.579Z,51.44
2019-05-30T15:01:59.588Z,52.47
2019-05-30T15:02:59.500Z,52.21
2019-05-30T15:03:59.517Z,52.31
2019-05-30T15:04:59.504Z,51.41
2019-05-30T15:05:59.504Z,51.61
2019-05-30T15:06:59.521Z,51.70
2019-05-30T15:07:59.558Z,51.51
2019-05-30T15:09:14.417Z,51.12
2019-05-30T15:09:59.549Z,51.32
2019-05-30T15:10:59.565Z,51.12
2019-05-30T15:11:59.583Z,52.37
2019-05-30T15:12:59.603Z,52.47
2019-05-30T15:13:59.521Z,52.67
2019-05-30T15:14:59.587Z,50.67
2019-05-30T15:15:59.560Z,50.09
2019-05-30T15:16:59.626Z,50.18
2019-05-30T15:17:59.654Z,50.28
2019-05-30T15:18:59.548Z,50.96
2019-05-30T15:19:59.558Z,50.96
2019-05-30T15:20:59.543Z,50.47
2019-05-30T15:21:59.558Z,50.06
2019-05-30T15:22:59.651Z,50.18
2019-05-30T15:23:59.710Z,49.48
2019-05-30T15:24:59.573Z,49.48
2019-05-30T15:25:59.657Z,49.87
2019-05-30T15:26:59.630Z,50.54
2019-05-30T15:27:59.685Z,50.57
2019-05-30T15:28:59.667Z,49.80
2019-05-30T15:29:59.673Z,49.22
2019-05-30T15:30:59.639Z,48.93
2019-05-30T15:31:59.589Z,49.90
2019-05-30T15:32:59.614Z,49.87
2019-05-30T15:33:59.705Z,49.96
2019-05-30T15:34:59.651Z,49.48
2019-05-30T15:35:59.630Z,49.41
2019-05-30T15:36:59.632Z,49.58
2019-05-30T15:37:59.610Z,48.90
2019-05-30T15:39:09.343Z,49.10
2019-05-30T15:41:05.287Z,50.26
2019-05-30T15:42:05.391Z,50.26
2019-05-30T15:43:05.438Z,49.77
2019-05-30T15:44:05.246Z,50.45
2019-05-30T15:45:05.213Z,50.54
2019-05-30T15:46:05.154Z,51.03
2019-05-30T15:47:05.241Z,51.51
2019-05-30T15:48:05.197Z,51.61
2019-05-30T15:49:05.211Z,51.48
2019-05-30T15:50:05.220Z,52.37
2019-05-30T15:51:05.183Z,52.19
2019-05-30T15:52:05.182Z,51.80
2019-05-30T15:53:05.265Z,52.19
2019-05-30T15:54:05.185Z,52.19
2019-05-30T15:55:05.280Z,52.67
2019-05-30T15:56:15.197Z,51.99
2019-05-30T15:57:58.822Z,52.28
2019-05-30T15:58:58.747Z,52.57
2019-05-30T15:59:58.803Z,52.37
2019-05-30T16:00:58.771Z,52.37
2019-05-30T16:01:58.734Z,53.05
2019-05-30T16:02:58.837Z,52.47
2019-05-30T16:06:29.579Z,53.05
2019-05-30T16:07:29.603Z,53.44
2019-05-30T16:08:29.507Z,54.21
2019-05-30T16:09:29.504Z,53.73
2019-05-30T16:10:29.465Z,53.73
2019-05-30T16:11:29.494Z,53.63
2019-05-30T16:12:29.585Z,53.92
2019-05-30T16:13:29.525Z,54.21
2019-05-30T16:14:29.489Z,54.24
2019-05-30T16:15:29.478Z,53.83
2019-05-30T16:16:39.320Z,53.92
2019-05-30T16:17:29.497Z,53.92
2019-05-30T16:18:29.515Z,54.05
2019-05-30T16:19:29.517Z,54.60
2019-05-30T16:20:29.598Z,55.08
2019-05-30T16:21:29.520Z,54.91
2019-05-30T16:22:29.522Z,55.20
2019-05-30T16:23:29.517Z,55.98
2019-05-30T16:24:29.607Z,56.07
2019-05-30T16:25:29.556Z,55.56
2019-05-30T16:26:29.621Z,55.27
2019-05-30T16:27:31.189Z,54.88
2019-05-30T16:28:29.565Z,54.50
2019-05-30T16:29:29.587Z,55.27
2019-05-30T16:30:29.598Z,54.98
2019-05-30T16:31:29.553Z,54.88
2019-05-30T16:32:29.607Z,54.88
2019-05-30T16:33:29.625Z,54.62
2019-05-30T16:34:32.653Z,54.53
2019-05-30T16:35:29.620Z,54.98
2019-05-30T16:36:29.655Z,55.01
2019-05-30T16:37:29.606Z,54.33
2019-05-30T16:38:29.633Z,54.14
2019-05-30T16:39:29.612Z,54.43
2019-05-30T16:40:29.573Z,54.72
2019-05-30T16:41:29.629Z,54.62
2019-05-30T16:42:29.618Z,54.72
2019-05-30T16:43:29.727Z,54.24
2019-05-30T16:44:29.590Z,54.24
2019-05-30T16:45:29.675Z,54.55
2019-05-30T16:46:29.669Z,54.36
2019-05-30T16:47:29.701Z,54.36
2019-05-30T16:48:29.652Z,54.72
2019-05-30T16:49:29.625Z,55.49
2019-05-30T16:50:29.671Z,55.30
2019-05-30T16:51:29.642Z,55.68
2019-05-30T16:52:29.710Z,55.78
2019-05-30T16:53:29.666Z,55.78
2019-05-30T16:54:29.635Z,56.26
2019-05-30T16:55:29.670Z,56.07
2019-05-30T16:56:29.639Z,56.36
2019-05-30T16:57:29.718Z,56.36
2019-05-30T16:58:29.678Z,56.16
2019-05-30T16:59:29.694Z,55.78
2019-05-30T17:00:29.732Z,55.68
2019-05-30T17:01:29.785Z,55.59
2019-05-30T17:02:29.672Z,55.40
2019-05-30T17:03:29.685Z,56.16
2019-05-30T17:04:29.690Z,55.01
2019-05-30T17:05:29.734Z,54.91
2019-05-30T17:06:29.707Z,55.59
2019-05-30T17:07:29.737Z,56.26
2019-05-30T17:08:29.719Z,56.16
2019-05-30T17:09:29.799Z,57.23
2019-05-30T17:10:32.822Z,57.04
2019-05-30T17:11:29.769Z,57.52
2019-05-30T17:12:29.778Z,56.94
2019-05-30T17:13:31.324Z,57.01
2019-05-30T17:14:29.811Z,57.97
2019-05-30T17:15:29.812Z,57.97
2019-05-30T17:16:29.789Z,57.29
2019-05-30T17:17:29.827Z,57.01
2019-05-30T17:18:29.746Z,57.39
2019-05-30T17:19:29.751Z,57.97
2019-05-30T17:20:29.805Z,57.78
2019-05-30T17:21:29.749Z,58.26
2019-05-30T17:22:30.721Z,57.97
2019-05-30T17:23:29.762Z,57.87
2019-05-30T17:24:29.824Z,58.17
2019-05-30T17:25:29.875Z,57.59
2019-05-30T17:26:29.756Z,58.17
2019-05-30T17:27:29.782Z,57.97
2019-05-30T17:28:29.858Z,58.17
2019-05-30T17:29:29.803Z,58.94
2019-05-30T17:30:29.846Z,58.26
2019-05-30T17:31:29.784Z,57.87
2019-05-30T17:32:29.836Z,58.45
2019-05-30T17:33:29.875Z,58.45
2019-05-30T17:34:29.834Z,58.19
2019-05-30T17:35:29.852Z,57.90
2019-05-30T17:36:29.878Z,58.10
2019-05-30T17:37:29.828Z,58.36
2019-05-30T17:38:29.820Z,57.97
2019-05-30T17:39:29.872Z,58.36
2019-05-30T17:40:43.584Z,58.75
2019-05-30T17:41:29.864Z,58.55
2019-05-30T17:42:29.892Z,58.91
2019-05-30T17:43:29.894Z,59.68